Time;durP1;ratioP1;P1;durP2;ratioP2;P2;SDS_P1;SDS_P2;PMS_P1;PMS_P2;Temp;Humidity;BMP_temperature;BMP_pressure;BME280_temperature;BME280_humidity;BME280_pressure;Samples;Min_cycle;Max_cycle;Signal;HPM_P1;HPM_P2
2023/03/05 00:02:18;;;;;;;9.38;4.82;;;7.00;91.20;;;;;;5095449;28;20075;-71
2023/03/05 00:04:43;;;;;;;9.40;3.47;;;6.90;91.20;;;;;;5100447;28;20024;-71
2023/03/05 00:07:11;;;;;;;11.57;3.83;;;6.90;91.40;;;;;;5106306;28;20038;-71
2023/03/05 00:09:37;;;;;;;10.50;4.35;;;6.90;91.50;;;;;;5102840;28;20077;-71
2023/03/05 00:12:03;;;;;;;8.93;3.60;;;6.90;91.70;;;;;;5093660;28;20028;-71
2023/03/05 00:14:28;;;;;;;14.82;4.40;;;6.80;91.90;;;;;;5094956;28;20043;-71
2023/03/05 00:16:54;;;;;;;14.10;3.85;;;6.80;92.10;;;;;;5104123;28;20485;-71
2023/03/05 00:19:20;;;;;;;11.70;4.03;;;6.80;92.20;;;;;;5097518;27;20387;-72
2023/03/05 00:21:45;;;;;;;9.20;3.95;;;6.70;92.40;;;;;;5083338;28;20120;-71
2023/03/05 00:24:16;;;;;;;26.25;6.32;;;6.70;92.60;;;;;;5094156;28;20051;-71
2023/03/05 00:26:41;;;;;;;9.95;4.05;;;6.60;92.80;;;;;;5091870;28;20035;-71
2023/03/05 00:29:08;;;;;;;8.50;3.70;;;6.60;93.00;;;;;;5094948;28;20036;-71
2023/03/05 00:31:35;;;;;;;9.43;3.60;;;6.50;93.20;;;;;;5099831;28;20276;-71
2023/03/05 00:34:04;;;;;;;14.05;4.05;;;6.60;93.30;;;;;;5114699;28;20467;-71
2023/03/05 00:36:30;;;;;;;12.77;3.72;;;6.50;93.50;;;;;;5102723;28;20216;-71
2023/03/05 00:38:56;;;;;;;13.60;4.10;;;6.50;93.60;;;;;;5096061;27;20118;-70
2023/03/05 00:41:22;;;;;;;9.60;3.10;;;6.50;93.70;;;;;;5096761;28;20103;-71
2023/03/05 00:43:48;;;;;;;12.10;3.42;;;6.40;93.90;;;;;;5112833;28;20042;-71
2023/03/05 00:46:14;;;;;;;11.00;3.40;;;6.30;93.90;;;;;;5103518;28;20016;-72
2023/03/05 00:48:40;;;;;;;11.20;3.92;;;6.40;94.00;;;;;;5112727;28;20054;-71
2023/03/05 00:51:05;;;;;;;10.18;3.42;;;6.30;94.00;;;;;;5103156;28;20074;-71
2023/03/05 00:53:31;;;;;;;9.73;3.25;;;6.30;94.10;;;;;;5097252;28;20052;-72
2023/03/05 00:55:57;;;;;;;14.30;3.92;;;6.30;94.10;;;;;;5093159;28;20074;-71
2023/03/05 00:58:23;;;;;;;13.23;3.83;;;6.30;94.20;;;;;;5108121;27;20113;-72
2023/03/05 01:00:49;;;;;;;8.32;3.10;;;6.20;94.30;;;;;;5101247;28;20032;-71
2023/03/05 01:03:16;;;;;;;13.15;4.15;;;6.20;94.30;;;;;;5113081;28;20031;-71
2023/03/05 01:05:42;;;;;;;11.93;3.40;;;6.10;94.40;;;;;;5107126;28;20016;-71
2023/03/05 01:08:08;;;;;;;6.97;3.10;;;6.10;94.40;;;;;;5100331;28;20111;-71
2023/03/05 01:10:34;;;;;;;15.60;3.92;;;6.10;94.40;;;;;;5106017;28;20115;-72
2023/03/05 01:13:00;;;;;;;11.05;3.60;;;6.10;94.40;;;;;;5109248;28;20443;-71
2023/03/05 01:15:26;;;;;;;10.88;3.58;;;6.10;94.40;;;;;;5094153;28;20669;-71
2023/03/05 01:17:52;;;;;;;11.65;3.15;;;6.00;94.50;;;;;;5108056;28;20031;-70
2023/03/05 01:20:19;;;;;;;9.63;3.17;;;6.00;94.50;;;;;;5107075;28;20038;-70
2023/03/05 01:22:45;;;;;;;10.38;3.55;;;6.00;94.50;;;;;;5106565;28;20391;-70
2023/03/05 01:25:13;;;;;;;6.18;2.50;;;6.00;94.40;;;;;;5108406;28;20016;-71
2023/03/05 01:27:39;;;;;;;10.65;3.38;;;6.00;94.40;;;;;;5105721;28;20063;-70
2023/03/05 01:30:06;;;;;;;8.80;3.20;;;6.00;94.30;;;;;;5105603;28;20058;-69
2023/03/05 01:32:33;;;;;;;5.78;2.42;;;6.00;94.30;;;;;;5109846;28;20030;-70
2023/03/05 01:35:00;;;;;;;14.20;4.00;;;6.00;94.10;;;;;;5104792;28;20051;-70
2023/03/05 01:37:27;;;;;;;11.90;3.25;;;6.00;94.10;;;;;;5095273;28;20024;-71
2023/03/05 01:39:52;;;;;;;9.18;3.17;;;6.00;94.00;;;;;;5092033;28;20024;-70
2023/03/05 01:42:19;;;;;;;7.13;2.10;;;5.90;93.80;;;;;;5092730;28;20034;-70
2023/03/05 01:45:18;;;;;;;7.85;2.58;;;5.90;93.70;;;;;;5092831;28;20051;-71
2023/03/05 01:47:44;;;;;;;12.80;3.20;;;5.80;93.60;;;;;;5078122;28;20511;-70
2023/03/05 01:50:14;;;;;;;5.88;2.60;;;5.80;93.50;;;;;;5092940;28;20031;-71
2023/03/05 01:52:44;;;;;;;10.23;3.15;;;5.70;93.50;;;;;;5104201;28;20023;-70
2023/03/05 01:55:19;;;;;;;6.30;2.80;;;5.70;93.50;;;;;;5092771;28;20103;-72
2023/03/05 01:57:50;;;;;;;8.93;2.45;;;5.70;93.50;;;;;;5104511;28;20495;-72
2023/03/05 02:00:19;;;;;;;9.00;2.40;;;5.60;93.00;;;;;;5092914;28;20032;-70
2023/03/05 02:02:48;;;;;;;9.18;2.20;;;5.50;92.70;;;;;;5087972;28;20036;-72
2023/03/05 02:05:27;;;;;;;9.63;3.13;;;5.50;92.70;;;;;;5092266;28;20040;-72
2023/03/05 02:07:58;;;;;;;5.95;2.33;;;5.50;92.80;;;;;;5105487;28;20031;-72
2023/03/05 02:10:25;;;;;;;7.47;2.65;;;5.50;92.50;;;;;;5092299;28;20059;-72
2023/03/05 02:12:53;;;;;;;8.10;2.35;;;5.40;92.60;;;;;;5091132;28;20468;-71
2023/03/05 02:15:19;;;;;;;11.27;2.50;;;5.40;92.40;;;;;;5091851;28;20078;-72
2023/03/05 02:17:45;;;;;;;6.32;2.00;;;5.40;92.40;;;;;;5090976;28;20028;-72
2023/03/05 02:20:35;;;;;;;4.68;2.05;;;5.40;92.40;;;;;;5085789;28;20529;-72
2023/03/05 02:23:01;;;;;;;4.95;2.30;;;5.40;92.40;;;;;;5100582;28;20039;-73
2023/03/05 02:25:28;;;;;;;5.53;2.30;;;5.30;92.10;;;;;;5112911;28;20103;-72
2023/03/05 02:28:00;;;;;;;6.05;2.20;;;5.30;92.10;;;;;;5110393;28;20490;-72
2023/03/05 02:30:26;;;;;;;7.15;2.13;;;5.30;91.90;;;;;;5112955;28;20028;-72
2023/03/05 02:32:52;;;;;;;9.50;2.70;;;5.30;92.00;;;;;;5109313;28;20027;-72
2023/03/05 02:35:18;;;;;;;7.40;1.83;;;5.20;91.60;;;;;;5109812;28;20023;-71
2023/03/05 02:37:44;;;;;;;6.82;2.05;;;5.20;91.80;;;;;;5100366;28;20490;-70
2023/03/05 02:40:11;;;;;;;5.00;2.05;;;5.20;91.70;;;;;;5111305;28;20020;-70
2023/03/05 02:42:37;;;;;;;7.55;2.17;;;5.20;91.70;;;;;;5107375;28;20099;-71
2023/03/05 02:45:03;;;;;;;4.20;1.73;;;5.20;91.60;;;;;;5112255;28;20031;-69
2023/03/05 02:47:29;;;;;;;6.90;2.05;;;5.20;91.50;;;;;;5105967;28;20031;-71
2023/03/05 02:49:55;;;;;;;7.43;2.33;;;5.20;91.50;;;;;;5112428;28;20150;-70
2023/03/05 02:52:24;;;;;;;7.65;2.95;;;5.20;91.50;;;;;;5105129;28;20084;-70
2023/03/05 02:54:50;;;;;;;4.68;1.70;;;5.20;91.40;;;;;;5080854;28;20186;-70
2023/03/05 02:57:17;;;;;;;7.13;2.38;;;5.20;91.30;;;;;;5087368;28;20055;-70
2023/03/05 02:59:43;;;;;;;8.00;2.40;;;5.20;91.40;;;;;;5112192;28;20031;-70
2023/03/05 03:02:08;;;;;;;7.30;2.20;;;5.20;91.20;;;;;;5102834;28;20290;-70
2023/03/05 03:04:34;;;;;;;4.38;2.10;;;5.10;91.30;;;;;;5110587;28;20497;-71
2023/03/05 03:07:00;;;;;;;5.57;2.55;;;5.10;91.30;;;;;;5103833;28;20027;-71
2023/03/05 03:09:25;;;;;;;5.50;1.90;;;5.10;91.30;;;;;;5112021;28;20448;-72
2023/03/05 03:11:51;;;;;;;9.48;2.20;;;5.20;91.30;;;;;;5095744;28;20032;-70
2023/03/05 03:14:17;;;;;;;6.05;2.25;;;5.10;91.30;;;;;;5091803;28;20519;-71
2023/03/05 03:16:43;;;;;;;5.10;2.10;;;5.20;91.40;;;;;;5091372;28;20027;-70
2023/03/05 03:19:08;;;;;;;6.95;1.90;;;5.20;91.30;;;;;;5091159;28;20402;-70
2023/03/05 03:21:34;;;;;;;5.10;2.38;;;5.10;91.20;;;;;;5091415;28;20024;-70
2023/03/05 03:23:59;;;;;;;7.00;2.33;;;5.20;91.30;;;;;;5091511;28;20032;-70
2023/03/05 03:26:25;;;;;;;6.97;2.63;;;5.20;91.30;;;;;;5091312;28;20036;-71
2023/03/05 03:28:51;;;;;;;5.50;1.95;;;5.20;91.30;;;;;;5080741;28;20120;-71
2023/03/05 03:31:16;;;;;;;9.45;2.58;;;5.10;91.20;;;;;;5093450;28;20535;-70
2023/03/05 03:33:42;;;;;;;4.60;2.05;;;5.10;91.30;;;;;;5111481;28;20027;-71
2023/03/05 03:36:08;;;;;;;6.00;2.28;;;5.20;91.20;;;;;;5075492;28;20074;-71
2023/03/05 03:38:34;;;;;;;7.15;1.88;;;5.20;91.20;;;;;;5106508;28;20055;-70
2023/03/05 03:40:59;;;;;;;7.18;1.98;;;5.20;91.20;;;;;;5095940;28;20507;-70
2023/03/05 03:43:25;;;;;;;3.47;1.80;;;5.20;91.20;;;;;;5107829;28;20035;-70
2023/03/05 03:45:51;;;;;;;4.25;2.30;;;5.20;91.20;;;;;;5088270;28;20058;-70
2023/03/05 03:48:16;;;;;;;5.20;2.03;;;5.20;91.20;;;;;;5101499;28;20059;-70
2023/03/05 03:50:42;;;;;;;6.38;2.20;;;5.20;91.30;;;;;;5099573;28;20024;-69
2023/03/05 03:53:13;;;;;;;7.20;2.00;;;5.20;91.10;;;;;;5103425;28;20024;-70
2023/03/05 03:55:40;;;;;;;5.53;2.25;;;5.10;91.10;;;;;;5110825;28;20024;-69
2023/03/05 03:58:05;;;;;;;5.18;2.17;;;5.20;91.10;;;;;;5110780;28;20528;-71
2023/03/05 04:00:31;;;;;;;6.07;2.00;;;5.20;91.20;;;;;;5095583;28;20016;-69
2023/03/05 04:02:57;;;;;;;6.05;2.40;;;5.20;91.10;;;;;;5095260;28;20055;-70
2023/03/05 04:05:22;;;;;;;3.63;2.40;;;5.10;91.20;;;;;;5100373;28;20032;-70
2023/03/05 04:07:48;;;;;;;4.95;2.15;;;5.10;91.20;;;;;;5102047;28;20466;-69
2023/03/05 04:10:13;;;;;;;3.72;1.80;;;5.10;91.30;;;;;;5102130;27;20032;-70
2023/03/05 04:12:41;;;;;;;5.43;1.88;;;5.10;91.40;;;;;;5099195;28;20447;-69
2023/03/05 04:15:08;;;;;;;7.75;1.85;;;5.10;91.40;;;;;;5099289;28;20036;-70
2023/03/05 04:17:34;;;;;;;5.28;1.88;;;5.10;91.30;;;;;;5097621;28;20023;-70
2023/03/05 04:20:00;;;;;;;5.35;1.85;;;5.10;91.40;;;;;;5098729;28;20088;-70
2023/03/05 04:22:26;;;;;;;5.32;1.83;;;5.10;91.40;;;;;;5098283;28;20042;-70
2023/03/05 04:24:51;;;;;;;10.68;2.28;;;5.10;91.50;;;;;;5105779;27;20024;-69
2023/03/05 04:27:17;;;;;;;6.30;2.80;;;5.10;91.50;;;;;;5111315;28;20023;-69
2023/03/05 04:29:43;;;;;;;10.65;2.00;;;5.10;91.50;;;;;;5100152;28;20111;-70
2023/03/05 04:32:08;;;;;;;9.90;2.40;;;5.00;91.60;;;;;;5092992;28;20071;-69
2023/03/05 04:34:36;;;;;;;5.15;2.00;;;5.00;91.60;;;;;;5094475;28;20028;-69
2023/03/05 04:37:02;;;;;;;4.55;2.03;;;5.00;91.50;;;;;;5082274;28;20118;-71
2023/03/05 04:39:28;;;;;;;7.15;2.05;;;4.90;91.60;;;;;;5094196;28;20052;-71
2023/03/05 04:41:53;;;;;;;8.02;2.05;;;4.90;91.70;;;;;;5093177;28;20491;-70
2023/03/05 04:44:22;;;;;;;8.25;1.90;;;4.90;91.70;;;;;;5108987;28;20036;-70
2023/03/05 04:46:48;;;;;;;5.53;2.38;;;4.80;91.70;;;;;;5114353;28;20035;-71
2023/03/05 04:49:14;;;;;;;7.32;2.00;;;4.80;91.80;;;;;;5093769;28;20043;-71
2023/03/05 04:51:40;;;;;;;8.25;2.03;;;4.80;91.80;;;;;;5090709;28;20028;-70
2023/03/05 04:54:08;;;;;;;6.45;1.85;;;4.70;91.90;;;;;;5090389;28;20058;-70
2023/03/05 04:56:33;;;;;;;4.80;2.38;;;4.80;91.90;;;;;;5092476;28;20032;-70
2023/03/05 04:58:59;;;;;;;4.85;1.92;;;4.70;92.00;;;;;;5093076;28;20551;-70
2023/03/05 05:01:25;;;;;;;7.28;1.52;;;4.60;92.10;;;;;;5093794;28;20067;-69
2023/03/05 05:03:50;;;;;;;6.88;2.08;;;4.60;92.10;;;;;;5107671;28;20036;-70
2023/03/05 05:06:16;;;;;;;7.03;1.83;;;4.60;92.20;;;;;;5103236;28;20097;-69
2023/03/05 05:08:42;;;;;;;7.55;2.10;;;4.50;92.30;;;;;;5095345;28;20027;-70
2023/03/05 05:11:11;;;;;;;7.22;1.85;;;4.50;92.30;;;;;;5076056;28;20525;-70
2023/03/05 05:13:37;;;;;;;7.75;2.00;;;4.50;92.30;;;;;;5097716;28;20034;-70
2023/03/05 05:16:05;;;;;;;4.57;1.73;;;4.50;92.50;;;;;;5098595;28;20108;-71
2023/03/05 05:18:31;;;;;;;5.28;2.10;;;4.50;92.50;;;;;;5104022;28;20433;-71
2023/03/05 05:20:57;;;;;;;5.78;1.83;;;4.50;92.50;;;;;;5107309;28;20073;-71
2023/03/05 05:23:22;;;;;;;8.57;2.05;;;4.50;92.60;;;;;;5102300;28;20554;-71
2023/03/05 05:26:03;;;;;;;4.70;1.55;;;4.40;92.80;;;;;;5093892;28;20020;-70
2023/03/05 05:28:29;;;;;;;7.50;2.90;;;4.50;92.70;;;;;;5094105;28;20031;-69
2023/03/05 05:30:55;;;;;;;8.07;2.10;;;4.40;92.70;;;;;;5109590;28;20032;-69
2023/03/05 05:33:21;;;;;;;5.57;2.00;;;4.40;92.70;;;;;;5106645;28;20087;-69
2023/03/05 05:35:47;;;;;;;6.85;2.22;;;4.40;92.80;;;;;;5084717;28;20032;-69
2023/03/05 05:38:13;;;;;;;5.57;1.92;;;4.40;92.90;;;;;;5100222;28;20042;-68
2023/03/05 05:40:38;;;;;;;5.28;1.80;;;4.40;93.00;;;;;;5101519;28;20036;-68
2023/03/05 05:43:04;;;;;;;5.95;2.33;;;4.40;93.00;;;;;;5092397;28;20032;-68
2023/03/05 05:45:30;;;;;;;6.28;2.20;;;4.30;93.00;;;;;;5092932;28;20081;-69
2023/03/05 05:47:55;;;;;;;4.30;2.47;;;4.30;93.00;;;;;;5094082;28;20024;-69
2023/03/05 05:50:21;;;;;;;4.50;1.80;;;4.30;93.10;;;;;;5097548;28;20031;-69
2023/03/05 05:52:47;;;;;;;5.68;2.80;;;4.30;93.20;;;;;;5101563;28;20023;-68
2023/03/05 05:55:12;;;;;;;5.90;2.90;;;4.30;93.30;;;;;;5094193;28;20400;-69
2023/03/05 05:57:38;;;;;;;7.15;3.03;;;4.30;93.30;;;;;;5093428;28;20186;-69
2023/03/05 06:00:07;;;;;;;7.75;2.97;;;4.30;93.40;;;;;;5086604;28;20056;-69
2023/03/05 06:02:32;;;;;;;4.22;1.65;;;4.40;93.40;;;;;;5074827;28;20025;-69
2023/03/05 06:04:58;;;;;;;4.85;1.73;;;4.30;93.40;;;;;;5101617;27;20058;-69
2023/03/05 06:07:23;;;;;;;4.88;2.10;;;4.40;93.50;;;;;;5108807;28;20019;-68
2023/03/05 06:09:49;;;;;;;5.95;2.35;;;4.40;93.60;;;;;;5093994;28;20024;-69
2023/03/05 06:12:16;;;;;;;5.68;2.08;;;4.30;93.60;;;;;;5092522;28;20081;-70
2023/03/05 06:14:42;;;;;;;5.40;2.45;;;4.40;93.60;;;;;;5094684;28;20129;-69
2023/03/05 06:17:07;;;;;;;4.95;2.30;;;4.40;93.70;;;;;;5088357;28;20116;-68
2023/03/05 06:19:33;;;;;;;5.57;1.90;;;4.40;93.70;;;;;;5071893;28;20035;-68
2023/03/05 06:21:59;;;;;;;5.22;2.13;;;4.40;93.70;;;;;;5103990;28;20023;-69
2023/03/05 06:24:24;;;;;;;6.45;2.22;;;4.40;93.80;;;;;;5083688;28;20056;-70
2023/03/05 06:26:50;;;;;;;10.52;2.42;;;4.40;93.80;;;;;;5072026;28;20027;-70
2023/03/05 06:29:15;;;;;;;5.55;2.17;;;4.40;93.80;;;;;;5086947;28;20101;-69
2023/03/05 06:31:41;;;;;;;9.45;2.53;;;4.50;93.90;;;;;;5091896;28;20036;-69
2023/03/05 06:34:07;;;;;;;8.80;2.53;;;4.50;93.90;;;;;;5090074;28;20734;-69
2023/03/05 06:36:32;;;;;;;7.55;2.35;;;4.50;94.20;;;;;;5091921;28;20035;-69
2023/03/05 06:38:58;;;;;;;3.20;1.52;;;4.50;94.10;;;;;;5102081;28;20390;-69
2023/03/05 06:41:26;;;;;;;7.03;2.83;;;4.60;94.30;;;;;;5109774;28;20066;-70
2023/03/05 06:43:52;;;;;;;3.70;1.92;;;4.60;94.10;;;;;;5102441;28;20046;-67
2023/03/05 06:46:24;;;;;;;6.72;2.45;;;4.70;94.10;;;;;;5104184;28;20475;-69
2023/03/05 06:48:51;;;;;;;3.83;1.40;;;4.70;94.10;;;;;;5101193;28;20452;-67
2023/03/05 06:51:23;;;;;;;5.15;2.88;;;4.80;94.20;;;;;;5105028;28;20040;-67
2023/03/05 06:53:50;;;;;;;5.72;1.88;;;4.80;94.20;;;;;;5092018;28;20034;-65
2023/03/05 06:56:17;;;;;;;5.28;1.70;;;4.80;94.20;;;;;;5107462;28;20067;-67
2023/03/05 06:58:44;;;;;;;6.50;1.90;;;4.80;94.20;;;;;;5090499;28;20047;-67
2023/03/05 07:01:11;;;;;;;11.27;2.58;;;4.90;94.20;;;;;;5095148;28;20108;-68
2023/03/05 07:03:36;;;;;;;7.25;2.38;;;4.90;94.10;;;;;;5088328;28;20032;-68
2023/03/05 07:06:07;;;;;;;4.80;2.60;;;4.90;94.00;;;;;;5082191;28;20027;-68
2023/03/05 07:08:33;;;;;;;5.13;1.98;;;4.90;94.00;;;;;;5083604;28;20039;-69
2023/03/05 07:10:59;;;;;;;6.22;1.85;;;5.00;94.00;;;;;;5082598;28;20025;-68
2023/03/05 07:13:25;;;;;;;2.90;1.90;;;5.00;93.90;;;;;;5096672;28;20028;-67
2023/03/05 07:15:51;;;;;;;3.72;2.20;;;5.10;93.90;;;;;;5097923;28;20391;-67
2023/03/05 07:18:17;;;;;;;6.72;2.30;;;5.10;93.90;;;;;;5108357;28;20114;-67
2023/03/05 07:20:42;;;;;;;3.05;1.80;;;5.20;93.90;;;;;;5100848;27;20028;-67
2023/03/05 07:23:08;;;;;;;4.70;1.83;;;5.20;93.70;;;;;;5093474;28;20031;-67
2023/03/05 07:25:37;;;;;;;4.65;1.60;;;5.20;93.70;;;;;;5107753;27;20048;-66
2023/03/05 07:28:05;;;;;;;6.90;2.15;;;5.30;93.70;;;;;;5090550;28;20130;-67
2023/03/05 07:30:31;;;;;;;5.57;2.42;;;5.30;93.50;;;;;;5088327;28;20111;-68
2023/03/05 07:32:57;;;;;;;6.65;1.80;;;5.30;93.60;;;;;;5105926;27;22365;-68
2023/03/05 07:35:23;;;;;;;5.53;2.45;;;5.40;93.50;;;;;;5102285;27;20116;-69
2023/03/05 07:37:49;;;;;;;5.32;2.00;;;5.40;93.50;;;;;;5097527;28;20032;-68
2023/03/05 07:40:15;;;;;;;3.42;1.83;;;5.40;93.40;;;;;;5114736;27;20020;-68
2023/03/05 07:42:41;;;;;;;7.88;2.22;;;5.50;93.40;;;;;;5097219;28;20032;-69
2023/03/05 07:45:08;;;;;;;6.72;2.03;;;5.50;93.40;;;;;;5112471;28;20041;-67
2023/03/05 07:47:34;;;;;;;5.00;2.75;;;5.60;93.30;;;;;;5088213;27;20119;-68
2023/03/05 07:50:00;;;;;;;4.75;1.80;;;5.60;93.20;;;;;;5099865;28;20035;-68
2023/03/05 07:52:25;;;;;;;4.05;1.80;;;5.60;93.00;;;;;;5113361;28;20032;-68
2023/03/05 07:54:51;;;;;;;7.65;2.28;;;5.60;92.90;;;;;;5114845;28;20055;-68
2023/03/05 07:57:17;;;;;;;5.45;1.40;;;5.60;93.00;;;;;;5113540;28;20051;-68
2023/03/05 07:59:42;;;;;;;5.50;1.88;;;5.70;93.10;;;;;;5116403;27;20038;-68
2023/03/05 08:02:13;;;;;;;3.53;1.85;;;5.70;92.90;;;;;;5100689;27;20036;-67
2023/03/05 08:04:39;;;;;;;5.15;2.05;;;5.80;92.80;;;;;;5108949;28;20066;-67
2023/03/05 08:07:05;;;;;;;6.57;2.08;;;5.70;92.80;;;;;;5081514;28;20099;-68
2023/03/05 08:09:30;;;;;;;4.75;1.75;;;5.80;92.50;;;;;;5110329;28;20441;-67
2023/03/05 08:11:56;;;;;;;3.83;1.60;;;5.70;92.60;;;;;;5103092;27;20032;-67
2023/03/05 08:14:21;;;;;;;5.10;2.00;;;5.80;92.50;;;;;;5109977;28;20027;-68
2023/03/05 08:16:51;;;;;;;3.97;2.00;;;5.80;92.60;;;;;;5102404;27;20163;-67
2023/03/05 08:19:18;;;;;;;5.60;2.40;;;5.90;92.50;;;;;;5097462;28;20063;-68
2023/03/05 08:21:44;;;;;;;5.05;2.00;;;5.80;92.30;;;;;;5101550;28;20052;-68
2023/03/05 08:24:11;;;;;;;4.05;1.48;;;5.80;92.20;;;;;;5086243;28;20028;-68
2023/03/05 08:26:37;;;;;;;7.85;2.65;;;5.80;92.10;;;;;;5108390;28;20539;-68
2023/03/05 08:29:04;;;;;;;3.75;1.98;;;5.90;92.20;;;;;;5081446;28;20032;-68
2023/03/05 08:31:31;;;;;;;5.47;1.90;;;6.00;92.20;;;;;;5110481;28;20024;-67
2023/03/05 08:33:58;;;;;;;6.18;1.90;;;6.00;92.10;;;;;;5095663;28;20066;-67
2023/03/05 08:36:24;;;;;;;8.32;1.80;;;6.10;92.00;;;;;;5092989;28;20071;-69
2023/03/05 08:38:50;;;;;;;6.15;2.05;;;6.10;91.60;;;;;;5095377;28;20429;-69
2023/03/05 08:41:17;;;;;;;5.72;2.00;;;6.20;91.80;;;;;;5085819;28;20035;-68
2023/03/05 08:43:43;;;;;;;4.07;1.90;;;6.20;91.60;;;;;;5107885;28;20067;-69
2023/03/05 08:46:13;;;;;;;6.75;2.40;;;6.40;91.80;;;;;;5112886;28;20478;-70
2023/03/05 08:48:39;;;;;;;5.75;1.98;;;6.40;91.50;;;;;;5111041;27;20031;-69
2023/03/05 08:51:13;;;;;;;4.53;1.50;;;6.50;91.20;;;;;;5098231;28;20070;-68
2023/03/05 08:53:39;;;;;;;6.93;2.75;;;6.40;90.50;;;;;;5107590;28;20035;-68
2023/03/05 08:56:05;;;;;;;6.75;2.15;;;6.30;90.30;;;;;;5088584;28;20025;-69
2023/03/05 08:58:31;;;;;;;3.67;1.70;;;6.20;90.30;;;;;;5107439;28;20463;-69
2023/03/05 09:00:57;;;;;;;4.25;1.73;;;6.20;90.00;;;;;;5108246;27;20065;-69
2023/03/05 09:03:23;;;;;;;6.40;2.65;;;6.20;90.30;;;;;;5108316;28;20043;-69
2023/03/05 09:05:48;;;;;;;4.53;2.05;;;6.30;90.10;;;;;;5111398;28;20483;-68
2023/03/05 09:08:14;;;;;;;4.88;2.03;;;6.30;90.40;;;;;;5107879;28;20084;-70
2023/03/05 09:10:41;;;;;;;5.20;2.00;;;6.50;90.40;;;;;;5104908;28;20024;-69
2023/03/05 09:13:08;;;;;;;5.15;2.50;;;6.50;90.20;;;;;;5110398;28;20027;-69
2023/03/05 09:15:34;;;;;;;4.68;1.45;;;6.60;89.40;;;;;;5101208;28;20028;-70
2023/03/05 09:18:00;;;;;;;6.40;1.73;;;6.60;89.50;;;;;;5103847;28;20035;-70
2023/03/05 09:20:25;;;;;;;4.65;1.75;;;6.60;89.10;;;;;;5112510;28;20063;-69
2023/03/05 09:22:51;;;;;;;8.20;2.35;;;6.60;88.50;;;;;;5102424;28;20054;-68
2023/03/05 09:25:17;;;;;;;5.25;2.40;;;6.70;89.30;;;;;;5092216;28;20032;-69
2023/03/05 09:27:44;;;;;;;6.82;2.13;;;6.70;89.30;;;;;;5098348;28;20387;-68
2023/03/05 09:30:12;;;;;;;5.22;1.88;;;6.80;88.00;;;;;;5110894;28;20034;-68
2023/03/05 09:32:38;;;;;;;5.90;1.83;;;6.70;86.80;;;;;;5107917;28;20110;-68
2023/03/05 09:35:04;;;;;;;3.75;1.77;;;6.60;85.70;;;;;;5073197;28;20115;-69
2023/03/05 09:37:29;;;;;;;6.03;2.15;;;6.60;87.00;;;;;;5096751;28;20028;-67
2023/03/05 09:39:55;;;;;;;5.30;2.00;;;6.60;84.40;;;;;;5089134;28;20081;-67
2023/03/05 09:42:36;;;;;;;5.20;1.98;;;6.60;86.20;;;;;;5097303;28;20122;-67
2023/03/05 09:45:29;;;;;;;5.75;2.25;;;6.60;86.60;;;;;;5087154;28;20040;-67
2023/03/05 09:48:21;;;;;;;7.35;1.83;;;6.60;85.80;;;;;;5087104;28;20019;-67
2023/03/05 09:50:53;;;;;;;8.77;3.25;;;6.70;86.90;;;;;;5082037;28;20036;-68
2023/03/05 09:53:41;;;;;;;5.65;2.10;;;6.60;86.20;;;;;;5089851;28;20028;-68
2023/03/05 09:56:15;;;;;;;3.95;1.75;;;6.70;86.40;;;;;;5093218;28;20380;-68
2023/03/05 09:58:48;;;;;;;4.53;1.83;;;6.70;86.40;;;;;;5107062;28;20126;-68
2023/03/05 10:01:21;;;;;;;2.90;1.65;;;6.80;86.60;;;;;;5112998;28;20353;-68
2023/03/05 10:03:58;;;;;;;4.82;1.98;;;6.80;86.00;;;;;;5111303;28;20048;-67
2023/03/05 10:06:25;;;;;;;8.23;1.92;;;6.90;86.30;;;;;;5111838;28;20023;-67
2023/03/05 10:09:13;;;;;;;6.35;2.55;;;6.90;86.20;;;;;;5098559;28;20379;-67
2023/03/05 10:11:44;;;;;;;5.53;1.70;;;6.90;85.90;;;;;;5079942;28;20372;-69
2023/03/05 10:14:34;;;;;;;3.03;1.80;;;7.00;86.20;;;;;;5086797;28;20052;-67
2023/03/05 10:17:25;;;;;;;4.30;1.70;;;7.00;85.10;;;;;;5087573;28;20040;-68
2023/03/05 10:20:01;;;;;;;4.00;1.80;;;7.00;85.00;;;;;;5072460;28;20108;-68
2023/03/05 10:22:48;;;;;;;4.55;1.80;;;6.90;84.60;;;;;;5082032;28;20039;-67
2023/03/05 10:25:18;;;;;;;3.55;1.70;;;6.90;84.70;;;;;;5083218;28;20097;-67
2023/03/05 10:28:04;;;;;;;6.00;2.50;;;6.90;85.30;;;;;;5091087;28;20031;-68
2023/03/05 10:30:58;;;;;;;4.72;2.17;;;6.90;85.50;;;;;;5075525;28;20110;-67
2023/03/05 10:33:47;;;;;;;5.97;2.35;;;6.90;85.50;;;;;;5099486;28;20023;-65
2023/03/05 10:36:23;;;;;;;4.43;2.40;;;7.00;85.80;;;;;;5101079;28;20051;-66
2023/03/05 10:38:48;;;;;;;6.75;2.72;;;7.00;86.00;;;;;;5094694;28;20083;-66
2023/03/05 10:41:37;;;;;;;3.50;1.95;;;6.90;85.40;;;;;;5091615;28;20058;-66
2023/03/05 10:44:25;;;;;;;2.45;1.83;;;6.90;86.00;;;;;;5090912;28;20363;-66
2023/03/05 10:46:53;;;;;;;7.25;2.35;;;6.90;86.10;;;;;;5070693;28;20021;-66
2023/03/05 10:49:24;;;;;;;3.70;1.75;;;6.80;86.70;;;;;;5099039;28;20032;-66
2023/03/05 10:51:55;;;;;;;4.40;1.98;;;6.80;87.10;;;;;;5079286;28;20032;-65
2023/03/05 10:54:34;;;;;;;4.68;1.80;;;6.70;87.80;;;;;;5100224;28;20039;-66
2023/03/05 10:57:22;;;;;;;5.35;2.22;;;6.70;88.10;;;;;;5099679;28;20100;-66
2023/03/05 10:59:57;;;;;;;6.85;2.15;;;6.70;88.60;;;;;;5083336;28;20043;-66
2023/03/05 11:02:23;;;;;;;3.38;1.80;;;6.80;88.80;;;;;;5090456;28;20075;-66
2023/03/05 11:04:51;;;;;;;3.97;1.55;;;6.60;88.60;;;;;;5080796;28;20503;-65
2023/03/05 11:07:16;;;;;;;4.65;2.28;;;6.60;89.30;;;;;;5075568;28;20077;-66
2023/03/05 11:10:00;;;;;;;4.72;1.88;;;6.50;88.90;;;;;;5105893;28;20032;-66
2023/03/05 11:12:32;;;;;;;5.15;1.98;;;6.60;89.00;;;;;;5106216;28;20180;-64
2023/03/05 11:15:12;;;;;;;3.97;1.73;;;6.50;88.50;;;;;;5110896;28;20032;-66
2023/03/05 11:17:43;;;;;;;6.03;2.25;;;6.50;88.80;;;;;;5106047;28;20030;-66
2023/03/05 11:20:33;;;;;;;3.50;1.80;;;6.50;88.60;;;;;;5090404;28;20471;-65
2023/03/05 11:23:22;;;;;;;6.03;1.90;;;6.50;88.80;;;;;;5088759;28;20050;-66
2023/03/05 11:25:54;;;;;;;6.93;1.90;;;6.50;89.10;;;;;;5112119;28;20039;-66
2023/03/05 11:28:42;;;;;;;6.07;2.40;;;6.60;89.40;;;;;;5104777;28;20154;-66
2023/03/05 11:31:17;;;;;;;4.50;2.00;;;6.70;89.70;;;;;;5100737;28;20035;-66
2023/03/05 11:33:57;;;;;;;;;;;6.80;89.80;;;;;;5105706;28;20016;-67
2023/03/05 11:36:24;;;;;;;4.20;2.50;;;6.80;89.70;;;;;;5080381;28;20282;-69
2023/03/05 11:38:53;;;;;;;3.28;1.63;;;6.80;89.50;;;;;;5106400;28;20467;-69
2023/03/05 11:41:25;;;;;;;4.32;2.40;;;6.70;89.00;;;;;;5098341;28;20057;-70
2023/03/05 11:43:53;;;;;;;4.50;2.15;;;6.70;88.80;;;;;;5082604;28;20040;-69
2023/03/05 11:46:20;;;;;;;5.25;2.22;;;6.70;88.90;;;;;;5078331;28;20028;-69
2023/03/05 11:48:46;;;;;;;3.58;2.13;;;6.90;88.70;;;;;;5101522;28;20028;-70
2023/03/05 11:51:25;;;;;;;4.40;2.03;;;6.90;88.50;;;;;;5084405;28;20028;-70
2023/03/05 11:53:58;;;;;;;6.50;2.17;;;7.00;88.50;;;;;;5102066;28;20031;-70
2023/03/05 11:56:35;;;;;;;4.68;1.98;;;7.00;88.10;;;;;;5094544;28;20034;-70
2023/03/05 11:59:33;;;;;;;3.78;1.88;;;7.20;88.70;;;;;;5096847;28;20135;-70
2023/03/05 12:01:59;;;;;;;4.82;2.13;;;7.20;87.60;;;;;;5091225;28;20031;-70
2023/03/05 12:04:26;;;;;;;4.75;2.13;;;7.20;87.50;;;;;;5109421;28;20043;-69
2023/03/05 12:07:01;;;;;;;5.70;2.45;;;7.20;86.30;;;;;;5104052;28;20102;-69
2023/03/05 12:09:51;;;;;;;5.88;2.38;;;7.10;87.00;;;;;;5102809;28;20034;-69
2023/03/05 12:12:36;;;;;;;3.90;1.80;;;7.10;87.20;;;;;;5088601;28;20501;-70
2023/03/05 12:15:01;;;;;;;;;;;7.10;87.20;;;;;;5096413;28;20054;-70
2023/03/05 12:17:35;;;;;;;3.40;1.58;;;7.20;86.90;;;;;;5101059;28;20378;-70
2023/03/05 12:20:27;;;;;;;4.00;2.10;;;7.10;86.00;;;;;;5086768;28;20024;-69
2023/03/05 12:22:54;;;;;;;4.47;2.00;;;7.00;87.00;;;;;;5091803;28;20104;-69
2023/03/05 12:25:43;;;;;;;4.13;1.88;;;7.10;87.20;;;;;;5106557;28;20036;-68
2023/03/05 12:28:35;;;;;;;3.78;2.13;;;7.10;87.20;;;;;;5096917;28;20092;-70
2023/03/05 12:31:02;;;;;;;5.18;1.92;;;7.20;87.00;;;;;;5092515;28;20024;-69
2023/03/05 12:33:31;;;;;;;3.10;2.22;;;7.20;86.40;;;;;;5086544;28;20522;-69
2023/03/05 12:36:18;;;;;;;5.72;3.67;;;7.20;86.80;;;;;;5090361;28;20056;-69
2023/03/05 12:38:53;;;;;;;6.35;2.80;;;7.20;85.90;;;;;;5089609;28;20028;-69
2023/03/05 12:41:22;;;;;;;5.80;2.33;;;7.20;84.90;;;;;;5102540;28;20023;-69
2023/03/05 12:44:08;;;;;;;3.17;2.25;;;7.20;85.10;;;;;;5100759;28;20431;-68
2023/03/05 12:46:34;;;;;;;7.20;2.63;;;7.30;85.20;;;;;;5098160;28;20024;-70
2023/03/05 12:49:19;;;;;;;3.33;1.73;;;7.30;83.50;;;;;;5091188;28;20393;-69
2023/03/05 12:51:47;;;;;;;2.80;1.73;;;7.20;83.70;;;;;;5103811;28;20016;-69
2023/03/05 12:54:32;;;;;;;4.82;1.90;;;7.20;84.20;;;;;;5091197;28;20115;-70
2023/03/05 12:57:01;;;;;;;7.38;2.70;;;7.30;84.20;;;;;;5082513;28;20241;-71
2023/03/05 12:59:57;;;;;;;2.90;1.70;;;7.30;83.20;;;;;;5091791;28;20059;-70
2023/03/05 13:02:36;;;;;;;5.25;1.75;;;7.30;83.50;;;;;;5084744;28;20036;-70
2023/03/05 13:05:13;;;;;;;4.38;1.90;;;7.30;83.60;;;;;;5098842;28;20024;-70
2023/03/05 13:07:39;;;;;;;4.70;2.15;;;7.20;82.60;;;;;;5090954;28;20028;-69